Time;durP1;ratioP1;P1;durP2;ratioP2;P2;SDS_P1;SDS_P2;PMS_P1;PMS_P2;Temp;Humidity;BMP_temperature;BMP_pressure;BME280_temperature;BME280_humidity;BME280_pressure;Samples;Min_cycle;Max_cycle;Signal;HPM_P1;HPM_P2
2021/05/17 06:53:24;;;;;;;;;;;;;;;14.23;62.08;98518.81;6234469;22;19942;-86
2021/05/17 06:56:04;;;;;;;;;;;;;;;14.24;62.20;98530.31;6243733;23;19976;-87
2021/05/17 06:59:13;;;;;;;;;;;;;;;14.23;62.12;98521.50;6246317;23;19981;-87
2021/05/17 07:01:18;;;;;;;;;;;;;;;14.23;62.18;98525.94;6224968;23;19911;-86
2021/05/17 07:03:47;;;;;;;;;;;;;;;14.23;62.15;98536.59;6244449;23;19986;-87
2021/05/17 07:06:20;;;;;;;;;;;;;;;14.23;62.19;98531.28;6243192;23;20176;-86
2021/05/17 07:11:38;;;;;;;;;;;;;;;14.21;62.19;98531.41;6245262;23;19978;-86
2021/05/17 07:14:03;;;;;;;;;;;;;;;14.21;62.19;98534.06;6244664;23;19941;-85
2021/05/17 07:16:29;;;;;;;;;;;;;;;14.22;62.11;98538.44;6246312;23;20436;-86
2021/05/17 07:18:55;;;;;;;;;;;;;;;14.23;62.02;98536.59;6245671;23;20204;-86
2021/05/17 07:23:49;;;;;;;;;;;;;;;14.22;62.06;98532.25;6248486;23;20288;-87
2021/05/17 07:26:16;;;;;;;;;;;;;;;14.21;62.00;98531.41;6220371;23;20216;-86
2021/05/17 07:28:42;;;;;;;;;;;;;;;14.22;62.00;98530.44;6246029;23;19954;-86
2021/05/17 07:31:09;;;;;;;;;;;;;;;14.22;62.15;98532.25;6219938;23;19916;-86
2021/05/17 07:33:37;;;;;;;;;;;;;;;14.21;62.00;98534.06;6218963;23;19916;-85
2021/05/17 07:36:03;;;;;;;;;;;;;;;14.21;62.02;98531.41;6242204;23;19919;-85
2021/05/17 07:38:31;;;;;;;;;;;;;;;14.22;61.96;98529.59;6214676;23;20044;-86
2021/05/17 07:40:57;;;;;;;;;;;;;;;14.22;61.92;98535.75;6239326;23;19916;-86
2021/05/17 07:43:23;;;;;;;;;;;;;;;14.21;61.95;98528.72;6243873;23;19927;-86
2021/05/17 07:45:48;;;;;;;;;;;;;;;14.22;61.93;98540.25;6214407;23;19915;-87
2021/05/17 07:48:15;;;;;;;;;;;;;;;14.21;61.89;98528.72;6239651;23;20008;-87
2021/05/17 07:50:41;;;;;;;;;;;;;;;14.23;62.01;98531.28;6213509;23;19946;-87
2021/05/17 07:53:06;;;;;;;;;;;;;;;14.22;61.92;98527.78;6214172;23;19919;-87
2021/05/17 07:55:32;;;;;;;;;;;;;;;14.22;62.38;98530.44;6241343;23;20162;-87
2021/05/17 07:57:57;;;;;;;;;;;;;;;14.22;62.09;98540.25;6213462;23;19947;-87
2021/05/17 08:00:27;;;;;;;;;;;;;;;14.22;62.02;98537.59;6214244;23;19984;-87
2021/05/17 08:02:53;;;;;;;;;;;;;;;14.22;62.09;98535.75;6213592;23;19915;-86
2021/05/17 08:05:18;;;;;;;;;;;;;;;14.22;62.10;98538.44;6241666;23;19926;-86
2021/05/17 08:07:47;;;;;;;;;;;;;;;14.22;62.15;98550.91;6243145;23;19966;-86
2021/05/17 08:10:13;;;;;;;;;;;;;;;14.23;62.13;98549.91;6242917;23;19945;-86
2021/05/17 08:12:41;;;;;;;;;;;;;;;14.22;62.23;98540.25;6241116;23;19962;-86
2021/05/17 08:15:07;;;;;;;;;;;;;;;14.22;62.14;98543.75;6215888;23;19926;-86
2021/05/17 08:17:33;;;;;;;;;;;;;;;14.21;62.04;98544.72;6241792;23;19943;-87
2021/05/17 08:19:58;;;;;;;;;;;;;;;14.22;62.06;98542.91;6216105;23;19974;-86
2021/05/17 08:22:24;;;;;;;;;;;;;;;14.22;62.16;98549.09;6241808;23;20277;-86
2021/05/17 08:24:49;;;;;;;;;;;;;;;14.22;62.04;98549.09;6215205;23;19962;-86
2021/05/17 08:27:15;;;;;;;;;;;;;;;14.22;62.06;98553.56;6241679;23;19926;-86
2021/05/17 08:29:40;;;;;;;;;;;;;;;14.22;62.09;98551.75;6245390;23;19947;-86
2021/05/17 08:32:10;;;;;;;;;;;;;;;14.22;62.10;98554.41;6247036;23;19982;-86
2021/05/17 08:34:36;;;;;;;;;;;;;;;14.21;62.08;98558.03;6247037;23;19923;-86
2021/05/17 08:37:02;;;;;;;;;;;;;;;14.21;62.10;98560.69;6241636;23;19919;-85
2021/05/17 08:39:28;;;;;;;;;;;;;;;14.22;62.32;98558.91;6243950;23;20344;-86
2021/05/17 08:41:55;;;;;;;;;;;;;;;14.39;64.21;98557.56;6217813;23;19915;-86
2021/05/17 08:44:22;;;;;;;;;;;;;;;14.37;63.98;98562.19;6248162;23;19916;-86
2021/05/17 08:46:49;;;;;;;;;;;;;;;14.32;63.95;98554.53;6248780;23;20202;-86
2021/05/17 08:49:17;;;;;;;;;;;;;;;14.29;64.02;98568.94;6248536;23;20102;-86
2021/05/17 08:51:43;;;;;;;;;;;;;;;14.28;63.98;98561.06;6221634;23;19915;-86
2021/05/17 08:54:09;;;;;;;;;;;;;;;14.26;63.60;98561.19;6223152;23;20435;-86
2021/05/17 08:56:38;;;;;;;;;;;;;;;14.25;63.62;98578.16;6250850;23;19938;-86
2021/05/17 08:59:07;;;;;;;;;;;;;;;14.25;63.66;98588.81;6224037;23;19985;-86
2021/05/17 09:01:33;;;;;;;;;;;;;;;14.25;63.08;98570.16;6252976;23;19975;-87
2021/05/17 09:03:59;;;;;;;;;;;;;;;14.25;62.96;98587.94;6253599;23;19941;-86
2021/05/17 09:06:35;;;;;;;;;;;;;;;14.24;62.97;98580.94;6251279;23;19915;-86
2021/05/17 09:09:03;;;;;;;;;;;;;;;14.24;63.06;98589.75;6249987;23;20197;-87
2021/05/17 09:11:30;;;;;;;;;;;;;;;14.25;63.00;98593.28;6223846;23;19916;-86
2021/05/17 09:14:08;;;;;;;;;;;;;;;14.25;63.04;98599.47;6224428;23;19970;-86
2021/05/17 09:16:43;;;;;;;;;;;;;;;14.25;63.13;98603.94;6250267;23;20399;-86
2021/05/17 09:19:13;;;;;;;;;;;;;;;14.23;63.31;98606.75;6226345;23;19987;-86
2021/05/17 09:21:54;;;;;;;;;;;;;;;14.24;63.13;98610.25;6249093;23;19927;-86
2021/05/17 09:24:39;;;;;;;;;;;;;;;14.25;63.28;98612.78;6249419;23;20260;-86
2021/05/17 09:27:07;;;;;;;;;;;;;;;14.24;63.25;98635.06;6273340;22;19915;-86
2021/05/17 09:29:36;;;;;;;;;;;;;;;14.25;63.34;98626.09;6250895;22;19926;-85
2021/05/17 09:32:17;;;;;;;;;;;;;;;14.24;63.50;98626.22;6249784;22;19930;-85
2021/05/17 09:34:44;;;;;;;;;;;;;;;14.24;63.38;98618.22;6275797;22;20136;-85
2021/05/17 09:37:13;;;;;;;;;;;;;;;14.24;63.54;98627.06;6276458;22;19911;-85
2021/05/17 09:39:47;;;;;;;;;;;;;;;14.23;63.60;98625.38;6274238;22;19926;-86
2021/05/17 09:42:12;;;;;;;;;;;;;;;14.32;63.90;98627.31;6274841;22;20307;-82
2021/05/17 09:44:41;;;;;;;;;;;;;;;14.66;66.59;98634.56;6276350;22;19915;-81
2021/05/17 09:47:13;;;;;;;;;;;;;;;15.00;66.41;98631.91;6279502;22;20324;-85
2021/05/17 09:49:46;;;;;;;;;;;;;;;14.78;65.90;98638.09;6276641;22;19950;-87
2021/05/17 09:52:15;;;;;;;;;;;;;;;14.63;65.94;98640.13;6277972;22;19957;-88
2021/05/17 09:55:04;;;;;;;;;;;;;;;14.53;66.01;98662.16;6280014;22;19927;-87
2021/05/17 09:57:30;;;;;;;;;;;;;;;14.47;65.30;98664.41;6240300;22;19926;-82
2021/05/17 09:59:57;;;;;;;;;;;;;;;14.67;65.19;98661.09;6276545;22;19911;-83
2021/05/17 10:02:28;;;;;;;;;;;;;;;14.62;64.77;98649.94;6274861;22;19934;-85
2021/05/17 10:04:55;;;;;;;;;;;;;;;14.56;64.16;98636.22;6275488;22;19922;-83
2021/05/17 10:07:20;;;;;;;;;;;;;;;14.70;66.71;98628.03;6275110;22;19923;-81
2021/05/17 10:09:46;;;;;;;;;;;;;;;14.80;67.58;98614.81;6276484;22;19943;-83
2021/05/17 10:12:11;;;;;;;;;;;;;;;14.96;67.35;98615.28;6276708;22;19915;-84
2021/05/17 10:14:37;;;;;;;;;;;;;;;15.20;67.53;98614.31;6277085;22;19915;-84
2021/05/17 10:17:03;;;;;;;;;;;;;;;15.28;67.96;98609.19;6276638;22;20336;-81
2021/05/17 10:19:28;;;;;;;;;;;;;;;15.20;68.49;98607.13;6276460;22;19926;-82
2021/05/17 10:21:54;;;;;;;;;;;;;;;15.38;70.86;98604.81;6276113;22;19922;-80
2021/05/17 10:24:21;;;;;;;;;;;;;;;15.44;70.26;98604.31;6275873;22;19923;-82
2021/05/17 10:26:47;;;;;;;;;;;;;;;15.55;69.69;98608.75;6276207;22;19915;-89
2021/05/17 10:29:13;;;;;;;;;;;;;;;15.36;69.08;98604.06;6280519;22;20348;-85
2021/05/17 10:31:51;;;;;;;;;;;;;;;15.18;69.13;98616.25;6249568;22;19945;-85
2021/05/17 10:34:16;;;;;;;;;;;;;;;15.30;68.18;98611.72;6274376;22;19982;-81
2021/05/17 10:36:55;;;;;;;;;;;;;;;15.23;69.95;98606.91;6275574;22;19919;-87
2021/05/17 10:39:28;;;;;;;;;;;;;;;15.08;69.08;98608.16;6248836;22;19996;-80
2021/05/17 10:42:13;;;;;;;;;;;;;;;15.24;68.04;98608.59;6253942;22;20145;-87
2021/05/17 10:47:42;;;;;;;;;;;;;;;14.86;68.02;98603.66;6287925;22;19949;-86
2021/05/17 10:50:14;;;;;;;;;;;;;;;14.80;68.50;98612.16;6287063;22;19915;-87
2021/05/17 10:52:42;;;;;;;;;;;;;;;14.68;67.41;98603.31;6259590;22;20258;-86
2021/05/17 10:55:28;;;;;;;;;;;;;;;14.55;67.24;98600.72;6287813;22;19974;-87
2021/05/17 11:00:32;;;;;;;;;;;;;;;14.56;66.31;98602.41;6288638;22;19915;-86
2021/05/17 11:03:16;;;;;;;;;;;;;;;14.52;66.11;98606.31;6288690;22;19977;-86
2021/05/17 11:05:42;;;;;;;;;;;;;;;14.52;66.14;98601.81;6286644;22;19949;-84
2021/05/17 11:08:16;;;;;;;;;;;;;;;14.47;65.97;98616.44;6284625;22;19945;-87
2021/05/17 11:10:41;;;;;;;;;;;;;;;14.44;66.15;98608.69;6260413;22;19919;-86
2021/05/17 11:13:21;;;;;;;;;;;;;;;14.44;66.26;98598.03;6286582;22;20255;-86
2021/05/17 11:16:06;;;;;;;;;;;;;;;14.43;66.43;98604.34;6284137;22;19915;-86
2021/05/17 11:18:35;;;;;;;;;;;;;;;14.41;66.60;98603.59;6282913;22;19922;-86
2021/05/17 11:21:03;;;;;;;;;;;;;;;14.39;66.62;98600.19;6257778;22;19919;-85
2021/05/17 11:23:31;;;;;;;;;;;;;;;14.30;66.99;98605.28;6287733;22;19923;-86
2021/05/17 11:28:37;;;;;;;;;;;;;;;14.28;66.96;98631.19;6282956;22;19929;-88
2021/05/17 11:31:57;;;;;;;;;;;;;;;14.27;66.92;98620.66;6288231;22;19926;-86
2021/05/17 11:34:16;;;;;;;;;;;;;;;14.29;66.61;98619.56;6279280;22;19927;-86
2021/05/17 11:36:47;;;;;;;;;;;;;;;14.28;66.61;98623.22;6284517;22;19923;-86
2021/05/17 11:39:19;;;;;;;;;;;;;;;14.24;66.72;98619.06;6288942;22;19911;-86
